createdAt,value
2023-02-21T00:00:33.729Z,1019.80
2023-02-21T00:01:33.724Z,1019.78
2023-02-21T00:02:33.680Z,1019.78
2023-02-21T00:03:33.737Z,1019.79
2023-02-21T00:04:33.655Z,1019.69
2023-02-21T00:05:33.678Z,1019.78
2023-02-21T00:06:33.654Z,1019.70
2023-02-21T00:07:33.603Z,1019.72
2023-02-21T00:08:33.638Z,1019.68
2023-02-21T00:09:33.585Z,1019.73
2023-02-21T00:10:33.567Z,1019.71
2023-02-21T00:11:33.573Z,1019.76
2023-02-21T00:12:33.545Z,1019.74
2023-02-21T00:13:33.555Z,1019.72
2023-02-21T00:14:33.558Z,1019.76
2023-02-21T00:15:33.518Z,1019.73
2023-02-21T00:16:33.516Z,1019.72
2023-02-21T00:17:33.462Z,1019.74
2023-02-21T00:18:33.471Z,1019.70
2023-02-21T00:19:33.471Z,1019.72
2023-02-21T00:20:33.449Z,1019.73
2023-02-21T00:21:33.448Z,1019.71
2023-02-21T00:22:33.411Z,1019.76
2023-02-21T00:23:33.406Z,1019.70
2023-02-21T00:24:33.376Z,1019.74
2023-02-21T00:25:33.363Z,1019.72
2023-02-21T00:26:33.365Z,1019.75
2023-02-21T00:27:33.371Z,1019.80
2023-02-21T00:28:33.320Z,1019.79
2023-02-21T00:29:33.314Z,1019.80
2023-02-21T00:30:33.409Z,1019.83
2023-02-21T00:31:33.349Z,1019.78
2023-02-21T00:32:33.313Z,1019.79
2023-02-21T00:33:33.316Z,1019.80
2023-02-21T00:34:33.256Z,1019.82
2023-02-21T00:35:33.245Z,1019.81
2023-02-21T00:36:33.239Z,1019.80
2023-02-21T00:37:33.249Z,1019.79
2023-02-21T00:38:33.170Z,1019.79
2023-02-21T00:39:33.206Z,1019.78
2023-02-21T00:40:33.147Z,1019.78
2023-02-21T00:41:33.166Z,1019.77
2023-02-21T00:42:33.158Z,1019.76
2023-02-21T00:43:34.605Z,1019.79
2023-02-21T00:44:33.127Z,1019.81
2023-02-21T00:45:33.154Z,1019.81
2023-02-21T00:46:33.063Z,1019.79
2023-02-21T00:47:33.066Z,1019.79
2023-02-21T00:48:33.090Z,1019.81
2023-02-21T00:49:33.061Z,1019.79
2023-02-21T00:50:33.039Z,1019.82
2023-02-21T00:51:33.029Z,1019.84
2023-02-21T00:52:33.005Z,1019.81
2023-02-21T00:53:33.017Z,1019.79
2023-02-21T00:54:32.963Z,1019.79
2023-02-21T00:55:32.951Z,1019.75
2023-02-21T00:56:32.933Z,1019.72
2023-02-21T00:57:32.916Z,1019.75
2023-02-21T00:58:32.922Z,1019.70
2023-02-21T00:59:32.931Z,1019.68
2023-02-21T01:00:32.878Z,1019.68
2023-02-21T01:01:32.983Z,1019.69
2023-02-21T01:02:32.876Z,1019.66
2023-02-21T01:03:32.879Z,1019.65
2023-02-21T01:04:32.899Z,1019.64
2023-02-21T01:05:32.814Z,1019.63
2023-02-21T01:06:32.801Z,1019.61
2023-02-21T01:07:32.861Z,1019.64
2023-02-21T01:08:32.784Z,1019.59
2023-02-21T01:09:32.783Z,1019.61
2023-02-21T01:10:32.761Z,1019.64
2023-02-21T01:11:32.747Z,1019.59
2023-02-21T01:12:32.731Z,1019.59
2023-02-21T01:13:32.714Z,1019.57
2023-02-21T01:14:32.691Z,1019.58
2023-02-21T01:15:32.723Z,1019.58
2023-02-21T01:16:32.669Z,1019.56
2023-02-21T01:17:32.669Z,1019.58
2023-02-21T01:18:32.637Z,1019.58
2023-02-21T01:19:32.630Z,1019.55
2023-02-21T01:20:32.613Z,1019.50
2023-02-21T01:21:32.608Z,1019.52
2023-02-21T01:22:32.592Z,1019.54
2023-02-21T01:23:32.605Z,1019.48
2023-02-21T01:24:32.550Z,1019.50
2023-02-21T01:25:32.597Z,1019.52
2023-02-21T01:26:32.523Z,1019.46
2023-02-21T01:27:32.531Z,1019.44
2023-02-21T01:28:32.535Z,1019.42
2023-02-21T01:29:32.491Z,1019.41
2023-02-21T01:30:32.560Z,1019.42
2023-02-21T01:31:32.680Z,1019.41
2023-02-21T01:32:32.455Z,1019.37
2023-02-21T01:33:32.425Z,1019.45
2023-02-21T01:34:33.703Z,1019.42
2023-02-21T01:35:32.427Z,1019.45
2023-02-21T01:36:34.213Z,1019.48
2023-02-21T01:37:32.384Z,1019.47
2023-02-21T01:38:32.376Z,1019.49
2023-02-21T01:39:32.374Z,1019.44
2023-02-21T01:40:32.328Z,1019.46
2023-02-21T01:41:32.333Z,1019.41
2023-02-21T01:42:32.358Z,1019.43
2023-02-21T01:43:32.283Z,1019.41
2023-02-21T01:44:32.310Z,1019.41
2023-02-21T01:45:32.316Z,1019.35
2023-02-21T01:46:32.373Z,1019.33
2023-02-21T01:47:32.246Z,1019.34
2023-02-21T01:48:32.252Z,1019.30
2023-02-21T01:49:32.244Z,1019.26
2023-02-21T01:50:32.208Z,1019.25
2023-02-21T01:51:32.225Z,1019.27
2023-02-21T01:52:32.217Z,1019.28
2023-02-21T01:53:32.174Z,1019.36
2023-02-21T01:54:32.132Z,1019.37
2023-02-21T01:55:32.136Z,1019.35
2023-02-21T01:56:32.153Z,1019.38
2023-02-21T01:57:32.126Z,1019.41
2023-02-21T01:58:32.086Z,1019.38
2023-02-21T01:59:32.087Z,1019.40
2023-02-21T02:00:32.058Z,1019.40
2023-02-21T02:01:32.094Z,1019.40
2023-02-21T02:02:32.055Z,1019.43
2023-02-21T02:03:32.049Z,1019.38
2023-02-21T02:04:32.037Z,1019.35
2023-02-21T02:05:32.001Z,1019.38
2023-02-21T02:06:32.005Z,1019.39
2023-02-21T02:07:32.022Z,1019.39
2023-02-21T02:08:31.972Z,1019.38
2023-02-21T02:09:31.941Z,1019.35
2023-02-21T02:10:31.953Z,1019.36
2023-02-21T02:11:31.909Z,1019.33
2023-02-21T02:12:31.948Z,1019.30
2023-02-21T02:13:31.908Z,1019.35
2023-02-21T02:14:31.909Z,1019.33
2023-02-21T02:15:31.922Z,1019.37
2023-02-21T02:16:31.840Z,1019.39
2023-02-21T02:17:33.062Z,1019.37
2023-02-21T02:18:39.806Z,1019.35
2023-02-21T02:19:31.874Z,1019.33
2023-02-21T02:20:31.830Z,1019.29
2023-02-21T02:21:31.827Z,1019.32
2023-02-21T02:22:31.773Z,1019.28
2023-02-21T02:23:31.760Z,1019.27
2023-02-21T02:24:31.771Z,1019.28
2023-02-21T02:25:31.766Z,1019.30
2023-02-21T02:26:31.742Z,1019.29
2023-02-21T02:27:31.712Z,1019.27
2023-02-21T02:28:31.722Z,1019.29
2023-02-21T02:29:31.692Z,1019.22
2023-02-21T02:30:31.757Z,1019.27
2023-02-21T02:31:31.756Z,1019.27
2023-02-21T02:32:31.645Z,1019.24
2023-02-21T02:33:31.632Z,1019.20
2023-02-21T02:34:31.628Z,1019.20
2023-02-21T02:35:31.620Z,1019.25
2023-02-21T02:36:31.620Z,1019.22
2023-02-21T02:37:31.598Z,1019.21
2023-02-21T02:38:31.570Z,1019.19
2023-02-21T02:39:31.567Z,1019.24
2023-02-21T02:40:31.602Z,1019.24
2023-02-21T02:41:31.529Z,1019.23
2023-02-21T02:42:31.542Z,1019.27
2023-02-21T02:43:31.507Z,1019.24
2023-02-21T02:44:31.502Z,1019.20
2023-02-21T02:45:31.501Z,1019.18
2023-02-21T02:46:31.550Z,1019.20
2023-02-21T02:47:31.460Z,1019.18
2023-02-21T02:48:31.452Z,1019.12
2023-02-21T02:49:31.477Z,1019.08
2023-02-21T02:50:31.419Z,1019.07
2023-02-21T02:51:31.403Z,1019.11
2023-02-21T02:52:31.415Z,1019.09
2023-02-21T02:53:31.407Z,1019.12
2023-02-21T02:54:31.395Z,1019.13
2023-02-21T02:55:31.395Z,1019.07
2023-02-21T02:56:31.374Z,1019.12
2023-02-21T02:57:31.347Z,1019.10
2023-02-21T02:58:31.315Z,1019.11
2023-02-21T02:59:31.341Z,1019.15
2023-02-21T03:00:31.272Z,1019.15
2023-02-21T03:01:31.277Z,1019.05
2023-02-21T03:02:31.241Z,1019.05
2023-02-21T03:03:31.279Z,1019.06
2023-02-21T03:04:31.265Z,1019.15
2023-02-21T03:05:31.208Z,1019.13
2023-02-21T03:06:31.211Z,1019.10
2023-02-21T03:07:31.201Z,1019.08
2023-02-21T03:08:31.179Z,1019.11
2023-02-21T03:09:31.155Z,1019.11
2023-02-21T03:10:31.150Z,1019.13
2023-02-21T03:11:31.132Z,1019.15
2023-02-21T03:12:31.124Z,1019.11
2023-02-21T03:13:31.088Z,1019.14
2023-02-21T03:14:31.103Z,1019.12
2023-02-21T03:15:31.085Z,1019.16
2023-02-21T03:16:31.094Z,1019.15
2023-02-21T03:17:31.089Z,1019.17
2023-02-21T03:18:31.038Z,1019.19
2023-02-21T03:19:31.006Z,1019.16
2023-02-21T03:20:31.047Z,1019.22
2023-02-21T03:21:31.050Z,1019.21
2023-02-21T03:22:31.004Z,1019.19
2023-02-21T03:23:30.980Z,1019.21
2023-02-21T03:24:30.960Z,1019.19
2023-02-21T03:25:30.961Z,1019.23
2023-02-21T03:26:30.956Z,1019.19
2023-02-21T03:27:30.920Z,1019.24
2023-02-21T03:28:30.940Z,1019.19
2023-02-21T03:29:30.883Z,1019.18
2023-02-21T03:30:30.962Z,1019.18
2023-02-21T03:31:30.958Z,1019.19
2023-02-21T03:32:30.879Z,1019.14
2023-02-21T03:33:30.833Z,1019.11
2023-02-21T03:34:30.823Z,1019.11
2023-02-21T03:35:30.825Z,1019.12
2023-02-21T03:36:30.845Z,1019.10
2023-02-21T03:37:30.814Z,1019.06
2023-02-21T03:38:30.810Z,1019.08
2023-02-21T03:39:30.752Z,1019.09
2023-02-21T03:40:30.752Z,1019.11
2023-02-21T03:41:30.766Z,1019.15
2023-02-21T03:42:30.724Z,1019.13
2023-02-21T03:43:30.761Z,1019.13
2023-02-21T03:44:30.686Z,1019.13
2023-02-21T03:45:30.679Z,1019.13
2023-02-21T03:46:30.835Z,1019.12
2023-02-21T03:47:30.665Z,1019.10
2023-02-21T03:48:32.669Z,1019.09
2023-02-21T03:49:30.654Z,1019.08
2023-02-21T03:50:30.621Z,1019.08
2023-02-21T03:51:30.636Z,1019.08
2023-02-21T03:52:30.575Z,1019.07
2023-02-21T03:53:30.577Z,1019.04
2023-02-21T03:54:30.595Z,1019.02
2023-02-21T03:55:30.596Z,1019.00
2023-02-21T03:56:41.189Z,1019.06
2023-02-21T03:57:31.510Z,1019.06
2023-02-21T03:58:30.618Z,1019.07
2023-02-21T03:59:30.547Z,1019.03
2023-02-21T04:00:30.498Z,1019.07
2023-02-21T04:01:30.480Z,1019.09
2023-02-21T04:02:30.457Z,1019.04
2023-02-21T04:03:30.470Z,1019.06
2023-02-21T04:04:30.460Z,1019.08
2023-02-21T04:05:30.421Z,1019.10
2023-02-21T04:06:30.470Z,1019.08
2023-02-21T04:07:30.399Z,1019.09
2023-02-21T04:08:30.440Z,1019.08
2023-02-21T04:09:30.402Z,1019.13
2023-02-21T04:10:31.476Z,1019.15
2023-02-21T04:11:30.341Z,1019.16
2023-02-21T04:12:30.334Z,1019.08
2023-02-21T04:13:30.344Z,1019.15
2023-02-21T04:14:30.338Z,1019.12
2023-02-21T04:15:30.285Z,1019.11
2023-02-21T04:16:30.338Z,1019.12
2023-02-21T04:17:30.279Z,1019.18
2023-02-21T04:18:30.242Z,1019.14
2023-02-21T04:19:30.262Z,1019.13
2023-02-21T04:20:30.239Z,1019.10
2023-02-21T04:21:30.204Z,1019.11
2023-02-21T04:22:30.224Z,1019.10
2023-02-21T04:23:30.227Z,1019.07
2023-02-21T04:24:30.161Z,1019.10
2023-02-21T04:25:30.184Z,1019.10
2023-02-21T04:26:30.242Z,1019.07
2023-02-21T04:27:30.135Z,1019.09
2023-02-21T04:28:30.138Z,1019.09
2023-02-21T04:29:30.142Z,1019.15
2023-02-21T04:30:30.102Z,1019.13
2023-02-21T04:31:30.155Z,1019.13
2023-02-21T04:32:30.139Z,1019.09
2023-02-21T04:33:30.058Z,1019.10
2023-02-21T04:34:30.065Z,1019.14
2023-02-21T04:35:30.048Z,1019.12
2023-02-21T04:36:30.004Z,1019.09
2023-02-21T04:37:30.044Z,1019.09
2023-02-21T04:38:30.000Z,1019.08
2023-02-21T04:39:30.020Z,1019.09
2023-02-21T04:40:29.983Z,1019.08
2023-02-21T04:41:29.968Z,1019.07
2023-02-21T04:42:29.924Z,1019.02
2023-02-21T04:43:29.940Z,1019.07
2023-02-21T04:44:29.946Z,1019.05
2023-02-21T04:45:29.918Z,1019.05
2023-02-21T04:46:29.863Z,1019.04
2023-02-21T04:47:29.943Z,1019.05
2023-02-21T04:48:29.971Z,1019.05
2023-02-21T04:49:29.890Z,1018.99
2023-02-21T04:50:29.830Z,1019.00
2023-02-21T04:51:29.856Z,1019.02
2023-02-21T04:52:29.794Z,1019.01
2023-02-21T04:53:29.782Z,1019.00
2023-02-21T04:54:29.794Z,1018.97
2023-02-21T04:55:29.752Z,1018.95
2023-02-21T04:56:29.893Z,1018.95
2023-02-21T04:57:39.990Z,1018.96
2023-02-21T04:58:36.468Z,1018.96
2023-02-21T04:59:30.736Z,1018.94
2023-02-21T05:00:29.688Z,1018.94
2023-02-21T05:01:29.727Z,1018.92
2023-02-21T05:02:29.686Z,1018.94
2023-02-21T05:03:29.693Z,1018.92
2023-02-21T05:04:29.744Z,1018.98
2023-02-21T05:05:29.629Z,1018.98
2023-02-21T05:06:29.637Z,1019.00
2023-02-21T05:07:29.615Z,1018.94
2023-02-21T05:08:29.588Z,1019.00
2023-02-21T05:09:29.607Z,1019.01
2023-02-21T05:10:44.674Z,1019.02
2023-02-21T05:11:30.584Z,1018.98
2023-02-21T05:12:29.562Z,1018.99
2023-02-21T05:13:29.556Z,1018.99
2023-02-21T05:14:29.510Z,1018.99
2023-02-21T05:15:29.500Z,1018.99
2023-02-21T05:16:29.596Z,1019.00
2023-02-21T05:17:29.483Z,1019.03
2023-02-21T05:18:29.455Z,1019.04
2023-02-21T05:19:29.503Z,1019.00
2023-02-21T05:20:29.447Z,1019.03
2023-02-21T05:21:29.422Z,1019.05
2023-02-21T05:22:29.413Z,1019.08
2023-02-21T05:23:29.446Z,1019.04
2023-02-21T05:24:29.361Z,1019.03
2023-02-21T05:25:29.429Z,1019.03
2023-02-21T05:26:29.398Z,1019.01
2023-02-21T05:27:29.339Z,1019.02
2023-02-21T05:28:29.355Z,1019.01
2023-02-21T05:29:29.314Z,1019.06
2023-02-21T05:30:29.384Z,1019.06
2023-02-21T05:31:29.383Z,1019.09
2023-02-21T05:32:29.328Z,1019.09
2023-02-21T05:33:29.265Z,1019.11
2023-02-21T05:34:29.280Z,1019.06
2023-02-21T05:35:29.272Z,1019.06
2023-02-21T05:36:29.239Z,1019.06
2023-02-21T05:37:31.274Z,1019.04
2023-02-21T05:38:29.192Z,1019.07
2023-02-21T05:39:29.242Z,1019.06
2023-02-21T05:40:29.186Z,1019.02
2023-02-21T05:41:29.182Z,1019.10
2023-02-21T05:42:29.135Z,1019.09
2023-02-21T05:43:29.272Z,1019.05
2023-02-21T05:44:29.145Z,1018.99
2023-02-21T05:45:29.125Z,1018.99
2023-02-21T05:46:29.110Z,1019.01
2023-02-21T05:47:29.105Z,1018.98
2023-02-21T05:48:29.065Z,1019.01
2023-02-21T05:49:29.057Z,1018.98
2023-02-21T05:50:29.035Z,1019.03
2023-02-21T05:51:29.047Z,1018.97
2023-02-21T05:52:29.046Z,1018.95
2023-02-21T05:53:29.003Z,1018.96
2023-02-21T05:54:28.998Z,1018.90
2023-02-21T05:55:28.957Z,1018.92
2023-02-21T05:56:29.017Z,1018.93
2023-02-21T05:57:28.906Z,1018.93
2023-02-21T05:58:28.958Z,1018.91
2023-02-21T05:59:28.937Z,1018.96
2023-02-21T06:00:28.895Z,1018.93
2023-02-21T06:01:28.920Z,1018.95
2023-02-21T06:02:28.918Z,1018.96
2023-02-21T06:03:28.931Z,1018.95
2023-02-21T06:04:28.875Z,1018.99
2023-02-21T06:05:28.849Z,1019.00
2023-02-21T06:06:28.834Z,1019.00
2023-02-21T06:07:28.814Z,1018.99
2023-02-21T06:08:28.837Z,1018.98
2023-02-21T06:09:28.783Z,1019.02
2023-02-21T06:10:28.766Z,1018.99
2023-02-21T06:11:28.767Z,1018.98
2023-02-21T06:12:28.779Z,1019.00
2023-02-21T06:13:28.765Z,1018.96
2023-02-21T06:14:28.719Z,1018.97
2023-02-21T06:15:28.709Z,1018.99
2023-02-21T06:16:28.692Z,1018.98
2023-02-21T06:17:28.721Z,1018.98
2023-02-21T06:18:28.659Z,1018.96
2023-02-21T06:19:28.681Z,1019.01
2023-02-21T06:20:28.699Z,1018.91
2023-02-21T06:21:28.755Z,1018.97
2023-02-21T06:22:28.645Z,1018.98
2023-02-21T06:23:28.589Z,1018.95
2023-02-21T06:24:28.580Z,1019.00
2023-02-21T06:25:36.099Z,1018.99
2023-02-21T06:26:28.554Z,1018.97
2023-02-21T06:27:28.566Z,1018.97
2023-02-21T06:28:28.531Z,1018.94
2023-02-21T06:29:28.767Z,1018.98
2023-02-21T06:30:28.546Z,1019.02
2023-02-21T06:31:28.570Z,1018.93
2023-02-21T06:32:28.521Z,1018.93
2023-02-21T06:33:28.476Z,1018.96
2023-02-21T06:34:28.471Z,1018.92
2023-02-21T06:35:28.515Z,1018.95
2023-02-21T06:36:28.417Z,1018.95
2023-02-21T06:37:28.422Z,1018.94
2023-02-21T06:38:28.433Z,1018.93
2023-02-21T06:39:28.400Z,1018.96
2023-02-21T06:40:28.397Z,1019.01
2023-02-21T06:41:28.375Z,1019.02
2023-02-21T06:42:28.341Z,1019.06
2023-02-21T06:43:28.421Z,1019.06
2023-02-21T06:44:28.305Z,1019.09
2023-02-21T06:45:28.330Z,1019.07
2023-02-21T06:46:28.375Z,1019.05
2023-02-21T06:47:28.304Z,1019.02
2023-02-21T06:48:28.270Z,1019.00
2023-02-21T06:49:35.816Z,1019.00
2023-02-21T06:50:28.237Z,1018.96
2023-02-21T06:51:28.345Z,1019.00
2023-02-21T06:52:28.268Z,1018.96
2023-02-21T06:53:28.240Z,1018.99
2023-02-21T06:54:28.188Z,1018.97
2023-02-21T06:55:28.189Z,1018.96
2023-02-21T06:56:28.202Z,1018.97
2023-02-21T06:57:28.161Z,1018.97
2023-02-21T06:58:28.204Z,1018.94
2023-02-21T06:59:28.150Z,1019.00
2023-02-21T07:00:28.115Z,1018.98
2023-02-21T07:01:28.239Z,1019.00
2023-02-21T07:02:28.116Z,1019.03
2023-02-21T07:03:28.080Z,1019.03
2023-02-21T07:04:28.135Z,1019.02
2023-02-21T07:05:28.059Z,1019.04
2023-02-21T07:06:29.853Z,1019.04
2023-02-21T07:07:38.340Z,1019.02
2023-02-21T07:08:28.027Z,1019.03
2023-02-21T07:09:28.041Z,1019.05
2023-02-21T07:10:28.005Z,1019.12
2023-02-21T07:11:28.031Z,1019.08
2023-02-21T07:12:27.957Z,1019.08
2023-02-21T07:13:27.974Z,1019.08
2023-02-21T07:14:28.024Z,1019.04
2023-02-21T07:15:27.987Z,1019.09
2023-02-21T07:16:27.952Z,1019.13
2023-02-21T07:17:27.876Z,1019.14
2023-02-21T07:18:27.874Z,1019.10
2023-02-21T07:19:27.930Z,1019.18
2023-02-21T07:20:27.873Z,1019.19
2023-02-21T07:21:27.846Z,1019.16
2023-02-21T07:22:27.835Z,1019.14
2023-02-21T07:23:27.857Z,1019.17
2023-02-21T07:24:27.852Z,1019.16
2023-02-21T07:25:27.811Z,1019.14
2023-02-21T07:26:27.801Z,1019.13
2023-02-21T07:27:27.790Z,1019.14
2023-02-21T07:28:27.765Z,1019.11
2023-02-21T07:29:27.785Z,1019.12
2023-02-21T07:30:27.778Z,1019.10
2023-02-21T07:31:27.876Z,1019.14
2023-02-21T07:32:29.472Z,1019.12
2023-02-21T07:33:27.695Z,1019.13
2023-02-21T07:34:27.715Z,1019.11
2023-02-21T07:35:27.679Z,1019.09
2023-02-21T07:36:27.649Z,1019.10
2023-02-21T07:37:27.639Z,1019.09
2023-02-21T07:38:27.644Z,1019.10
2023-02-21T07:39:27.639Z,1019.10
2023-02-21T07:40:27.720Z,1019.08
2023-02-21T07:41:27.638Z,1019.09
2023-02-21T07:42:27.622Z,1019.10
2023-02-21T07:43:27.593Z,1019.14
2023-02-21T07:44:27.594Z,1019.14
2023-02-21T07:45:27.536Z,1019.14
2023-02-21T07:46:27.593Z,1019.23
2023-02-21T07:47:27.516Z,1019.15
2023-02-21T07:48:27.536Z,1019.14
2023-02-21T07:49:27.511Z,1019.14
2023-02-21T07:50:27.538Z,1019.11
2023-02-21T07:51:27.472Z,1019.10
2023-02-21T07:52:27.498Z,1019.12
2023-02-21T07:53:27.452Z,1019.09
2023-02-21T07:54:27.461Z,1019.09
2023-02-21T07:55:27.399Z,1019.13
2023-02-21T07:56:27.388Z,1019.16
2023-02-21T07:57:27.407Z,1019.19
2023-02-21T07:58:27.383Z,1019.18
2023-02-21T07:59:27.356Z,1019.22
2023-02-21T08:00:27.381Z,1019.23
2023-02-21T08:01:27.348Z,1019.27
2023-02-21T08:02:27.343Z,1019.29
2023-02-21T08:03:27.302Z,1019.22
2023-02-21T08:04:27.342Z,1019.20
2023-02-21T08:05:27.281Z,1019.20
2023-02-21T08:06:27.314Z,1019.19
2023-02-21T08:07:27.255Z,1019.13
2023-02-21T08:08:27.263Z,1019.10
2023-02-21T08:09:27.305Z,1019.10
2023-02-21T08:10:27.245Z,1019.14
2023-02-21T08:11:27.206Z,1019.16
2023-02-21T08:12:27.218Z,1019.19
2023-02-21T08:13:27.244Z,1019.18
2023-02-21T08:14:27.179Z,1019.19
2023-02-21T08:15:27.158Z,1019.17
2023-02-21T08:16:27.229Z,1019.23
2023-02-21T08:17:27.173Z,1019.23
2023-02-21T08:18:27.148Z,1019.21
2023-02-21T08:19:27.144Z,1019.21
2023-02-21T08:20:27.114Z,1019.16
2023-02-21T08:21:27.071Z,1019.20
2023-02-21T08:22:27.086Z,1019.20
2023-02-21T08:23:27.161Z,1019.22
2023-02-21T08:24:27.072Z,1019.22
2023-02-21T08:25:27.264Z,1019.20
2023-02-21T08:26:27.040Z,1019.24
2023-02-21T08:27:27.012Z,1019.32
2023-02-21T08:28:27.025Z,1019.27
2023-02-21T08:29:26.984Z,1019.28
2023-02-21T08:30:27.131Z,1019.35
2023-02-21T08:31:27.024Z,1019.34
2023-02-21T08:32:27.027Z,1019.31
2023-02-21T08:33:26.942Z,1019.31
2023-02-21T08:34:26.912Z,1019.34
2023-02-21T08:35:26.897Z,1019.30
2023-02-21T08:36:26.945Z,1019.31
2023-02-21T08:37:26.846Z,1019.33
2023-02-21T08:38:26.862Z,1019.29
2023-02-21T08:39:26.847Z,1019.31
2023-02-21T08:40:26.875Z,1019.37
2023-02-21T08:41:26.830Z,1019.39
2023-02-21T08:42:26.803Z,1019.38
2023-02-21T08:43:26.798Z,1019.33
2023-02-21T08:44:26.799Z,1019.34
2023-02-21T08:45:26.806Z,1019.35
2023-02-21T08:46:26.759Z,1019.33
2023-02-21T08:47:26.756Z,1019.32
2023-02-21T08:48:26.766Z,1019.27
2023-02-21T08:49:26.728Z,1019.27
2023-02-21T08:50:26.722Z,1019.30
2023-02-21T08:51:26.695Z,1019.27
2023-02-21T08:52:26.710Z,1019.26
2023-02-21T08:53:26.661Z,1019.23
2023-02-21T08:54:26.681Z,1019.27
2023-02-21T08:55:26.637Z,1019.20
2023-02-21T08:56:26.673Z,1019.19
2023-02-21T08:57:26.611Z,1019.19
2023-02-21T08:58:26.614Z,1019.19
2023-02-21T08:59:26.631Z,1019.18
2023-02-21T09:00:26.660Z,1019.19
2023-02-21T09:01:26.620Z,1019.15
2023-02-21T09:02:26.594Z,1019.12
2023-02-21T09:03:26.542Z,1019.11
2023-02-21T09:04:26.552Z,1019.10
2023-02-21T09:05:26.533Z,1019.14
2023-02-21T09:06:26.498Z,1019.15
2023-02-21T09:07:26.504Z,1019.13
2023-02-21T09:08:26.485Z,1019.18
2023-02-21T09:09:26.446Z,1019.16
2023-02-21T09:10:26.492Z,1019.17
2023-02-21T09:11:26.432Z,1019.17
2023-02-21T09:12:26.436Z,1019.11
2023-02-21T09:13:26.381Z,1019.12
2023-02-21T09:14:26.393Z,1019.17
2023-02-21T09:15:26.375Z,1019.11
2023-02-21T09:16:26.434Z,1019.13
2023-02-21T09:17:26.328Z,1019.11
2023-02-21T09:18:26.313Z,1019.12
2023-02-21T09:19:26.320Z,1019.12
2023-02-21T09:20:26.345Z,1019.13
2023-02-21T09:21:26.290Z,1019.11
2023-02-21T09:22:26.299Z,1019.12
2023-02-21T09:23:26.249Z,1019.11
2023-02-21T09:24:26.301Z,1019.09
2023-02-21T09:25:26.220Z,1019.12
2023-02-21T09:26:26.237Z,1019.12
2023-02-21T09:27:26.201Z,1019.08
2023-02-21T09:28:26.239Z,1019.11
2023-02-21T09:29:31.522Z,1019.02
2023-02-21T09:30:27.465Z,1019.08
2023-02-21T09:31:26.192Z,1019.10
2023-02-21T09:32:26.195Z,1019.13
2023-02-21T09:33:26.177Z,1019.06
2023-02-21T09:34:26.134Z,1019.08
2023-02-21T09:35:26.104Z,1019.04
2023-02-21T09:36:26.103Z,1019.05
2023-02-21T09:37:26.076Z,1018.99
2023-02-21T09:38:26.078Z,1019.04
2023-02-21T09:39:26.046Z,1019.02
2023-02-21T09:40:26.074Z,1019.03
2023-02-21T09:41:26.055Z,1019.02
2023-02-21T09:42:26.006Z,1019.00
2023-02-21T09:43:26.039Z,1019.03
2023-02-21T09:44:25.994Z,1019.01
2023-02-21T09:45:25.985Z,1019.03
2023-02-21T09:46:25.957Z,1018.97
2023-02-21T09:47:25.959Z,1018.98
2023-02-21T09:48:25.917Z,1018.95
2023-02-21T09:49:25.911Z,1018.92
2023-02-21T09:50:25.901Z,1018.91
2023-02-21T09:51:25.886Z,1018.92
2023-02-21T09:52:25.851Z,1018.93
2023-02-21T09:53:25.868Z,1018.96
2023-02-21T09:54:25.838Z,1018.97
2023-02-21T09:55:25.869Z,1019.00
2023-02-21T09:56:25.811Z,1018.97
2023-02-21T09:57:25.828Z,1018.94
2023-02-21T09:58:25.806Z,1018.93
2023-02-21T09:59:25.764Z,1018.96
2023-02-21T10:00:25.765Z,1018.94
2023-02-21T10:01:25.838Z,1018.96
2023-02-21T10:02:25.738Z,1018.93
2023-02-21T10:03:25.782Z,1018.99
2023-02-21T10:04:25.740Z,1018.95
2023-02-21T10:05:25.724Z,1018.96
2023-02-21T10:06:25.687Z,1018.96
2023-02-21T10:07:25.672Z,1018.98
2023-02-21T10:08:25.672Z,1018.98
2023-02-21T10:09:25.619Z,1018.94
2023-02-21T10:10:25.790Z,1018.96
2023-02-21T10:11:25.623Z,1018.95
2023-02-21T10:12:25.594Z,1018.94
2023-02-21T10:13:25.612Z,1018.97
2023-02-21T10:14:25.561Z,1018.99
2023-02-21T10:15:25.556Z,1018.94
2023-02-21T10:16:25.580Z,1018.99
2023-02-21T10:17:25.524Z,1019.02
2023-02-21T10:18:25.544Z,1018.98
2023-02-21T10:19:25.535Z,1018.96
2023-02-21T10:20:25.526Z,1019.01
2023-02-21T10:21:25.481Z,1019.03
2023-02-21T10:22:25.525Z,1019.05
2023-02-21T10:23:25.462Z,1019.05
2023-02-21T10:24:25.417Z,1019.03
2023-02-21T10:25:25.446Z,1019.06
2023-02-21T10:26:25.419Z,1019.01
2023-02-21T10:27:25.386Z,1019.03
2023-02-21T10:28:25.401Z,1019.03
2023-02-21T10:29:25.371Z,1019.02
2023-02-21T10:30:25.513Z,1019.03
2023-02-21T10:31:25.442Z,1019.05
2023-02-21T10:32:25.323Z,1019.06
2023-02-21T10:33:25.301Z,1019.01
2023-02-21T10:34:25.290Z,1018.99
2023-02-21T10:35:25.298Z,1019.00
2023-02-21T10:36:25.305Z,1018.98
2023-02-21T10:37:25.325Z,1019.03
2023-02-21T10:38:25.269Z,1019.02
2023-02-21T10:39:25.264Z,1019.00
2023-02-21T10:40:25.289Z,1018.98
2023-02-21T10:41:25.210Z,1018.95
2023-02-21T10:42:25.184Z,1018.95
2023-02-21T10:43:25.165Z,1019.01
2023-02-21T10:44:25.164Z,1018.98
2023-02-21T10:45:25.194Z,1018.96
2023-02-21T10:46:25.221Z,1019.01
2023-02-21T10:47:25.139Z,1018.95
2023-02-21T10:48:25.105Z,1018.94
2023-02-21T10:49:25.107Z,1018.92
2023-02-21T10:50:25.070Z,1018.98
2023-02-21T10:51:25.077Z,1018.99
2023-02-21T10:52:25.077Z,1019.00
2023-02-21T10:53:25.132Z,1019.00
2023-02-21T10:54:25.025Z,1019.01
2023-02-21T10:55:32.608Z,1019.00
2023-02-21T10:56:26.049Z,1018.97
2023-02-21T10:57:24.997Z,1019.01
2023-02-21T10:58:24.967Z,1018.99
2023-02-21T10:59:24.982Z,1018.98
2023-02-21T11:00:24.934Z,1018.99
2023-02-21T11:01:24.967Z,1018.96
2023-02-21T11:02:24.953Z,1019.03
2023-02-21T11:03:24.936Z,1018.99
2023-02-21T11:04:24.889Z,1019.00
2023-02-21T11:05:24.868Z,1018.98
2023-02-21T11:06:26.497Z,1018.98
2023-02-21T11:07:24.843Z,1018.99
2023-02-21T11:08:24.844Z,1018.98
2023-02-21T11:09:24.831Z,1018.92
2023-02-21T11:10:24.825Z,1018.93
2023-02-21T11:11:24.784Z,1018.95
2023-02-21T11:12:24.791Z,1018.93
2023-02-21T11:13:24.767Z,1018.96
2023-02-21T11:14:24.805Z,1018.89
2023-02-21T11:15:24.751Z,1018.92
2023-02-21T11:16:24.735Z,1018.87
2023-02-21T11:17:24.720Z,1018.90
2023-02-21T11:18:24.704Z,1018.93
2023-02-21T11:19:24.735Z,1018.91
2023-02-21T11:20:24.657Z,1018.93
2023-02-21T11:21:24.697Z,1018.88
2023-02-21T11:22:24.631Z,1018.91
2023-02-21T11:23:24.637Z,1018.82
2023-02-21T11:24:24.614Z,1018.80
2023-02-21T11:25:24.612Z,1018.84
2023-02-21T11:26:24.567Z,1018.82
2023-02-21T11:27:24.558Z,1018.80
2023-02-21T11:28:24.569Z,1018.78
2023-02-21T11:29:24.574Z,1018.81
2023-02-21T11:30:24.595Z,1018.78
2023-02-21T11:31:24.579Z,1018.81
2023-02-21T11:32:24.508Z,1018.81
2023-02-21T11:33:24.494Z,1018.78
2023-02-21T11:34:24.487Z,1018.82
2023-02-21T11:35:24.458Z,1018.77
2023-02-21T11:36:24.438Z,1018.72
2023-02-21T11:37:24.454Z,1018.74
2023-02-21T11:38:24.403Z,1018.74
2023-02-21T11:39:24.402Z,1018.73
2023-02-21T11:40:24.389Z,1018.71
2023-02-21T11:41:24.365Z,1018.71
2023-02-21T11:42:24.369Z,1018.65
2023-02-21T11:43:24.389Z,1018.66
2023-02-21T11:44:24.389Z,1018.66
2023-02-21T11:45:24.360Z,1018.64
2023-02-21T11:46:24.522Z,1018.62
2023-02-21T11:47:24.304Z,1018.62
2023-02-21T11:48:24.294Z,1018.61
2023-02-21T11:49:24.279Z,1018.58
2023-02-21T11:50:24.238Z,1018.62
2023-02-21T11:51:24.319Z,1018.57
2023-02-21T11:52:24.241Z,1018.59
2023-02-21T11:53:24.201Z,1018.58
2023-02-21T11:54:24.209Z,1018.57
2023-02-21T11:55:26.236Z,1018.54
2023-02-21T11:56:24.170Z,1018.55
2023-02-21T11:57:24.175Z,1018.54
2023-02-21T11:58:24.162Z,1018.53
2023-02-21T11:59:24.168Z,1018.50
2023-02-21T12:00:24.090Z,1018.53
2023-02-21T12:01:24.090Z,1018.54
2023-02-21T12:02:24.148Z,1018.49
2023-02-21T12:03:24.123Z,1018.51
2023-02-21T12:04:24.078Z,1018.51
2023-02-21T12:05:24.028Z,1018.50